Florida AWOS List, Phone Numbers

USA |  
| Search AWOS

Rocky Mountain States: Montana | Wyoming | Colorado | New Mexico

Complete weather reports: Florida

Legend: KFNL = METAR available Follow your local AWOS on AV Mobile = METAR available on AV Mobile
Station Florida Location Frequency Phone
KAQQICAO ID KAQQ Apalachicola, Apalachicola
KAAFFAA ID AAF, ASOS, KAAF 252208Z AUTO 02009KT 10SM BKN006 OVC042 14/12 A2998 Follow KAAF on AV Mobile APALACHICOLA MUNICIPAL AIRPORT 119.925 850-653-8271
KNAEICAO ID KNAE Astor, Bombing Range Detachment Astor
KAVOFAA ID AVO, AWOS-3 AVON PARK 118.725 863-453-4223
KAGRFAA ID AGR Avon Park Gunnery Range
KBOWFAA ID BOW, AWOS-3, KBOW 252235Z AUTO 20006KT 10SM FEW075 BKN090 26/22 A2990 RMK AO2 LTG DSNT ALQDS Follow KBOW on AV Mobile Bartow Municipal 123.775 863-533-9004
F95FAA ID F95, AWOS-AV, KTEX 252255Z AUTO 11004KT 10SM OVC032 M03/M07 A3035 RMK AO2 T10271070 Follow  on AV Mobile BLOUNTSTOWN 119.350 850-674-1347
KBCTFAA ID BCT, AWOS-3, KBCT 252247Z 19008G18KT 10SM SCT015 26/23 A2995 Follow KBCT on AV Mobile Boca Raton, Boca Raton Airport 121.125 561-391-2696
K1J0FAA ID 1J0, K1J0 252158Z AUTO 35004KT 5SM -RA BR OVC030 10/09 A3006 RMK AO2 SLP165 P0004 T01000089 Follow K1J0 on AV Mobile TRI COUNTY AIRPORT
KBKVFAA ID BKV, ASOS, KBKV 252251Z 12007KT 10SM VCTS RA FEW015 BKN029 OVC110 21/20 A2990 RMK AO2 LTG DSNT ALQDS TSE49 P0038 Follow KBKV on AV Mobile BROOKSVILLE HERNANDO CO AIRPORT 134.725 352-799-5881
K1J4ICAO ID K1J4 Cape San Blas Coast Guard Station
KNZCICAO ID KNZC Cecil, Naval Air Station
2ISFAA ID 2IS, AWOS-3, KTEX 252255Z AUTO 11004KT 10SM OVC032 M03/M07 A3035 RMK AO2 T10271070 Follow  on AV Mobile CLEWISTON 124.175 863-983-7020
KX53ICAO ID KX53 Clewiston
KCOFFAA ID COF, KCOF 252222Z AUTO 17018G23KT 10SM VCTS CLR 24/23 A2987 RMK AO2 LTG DSNT NW-N Follow KCOF on AV Mobile Cocoa / Patrick Air Force Base
KXMRFAA ID XMR, KXMR 252241Z AUTO 20011KT 180V240 10SM -TSRA FEW039 BKN055 BKN090 24/23 A2990 RMK AO2 WSHFT 31 LTG DSNT NW-SE Follow KXMR on AV Mobile Cocoa Beach, Cape Canaveral Air Force Station Skid Strip
KCEWFAA ID CEW, ASOS, KCEW 252153Z AUTO 01003KT 10SM -RA BKN110 11/08 A3003 Follow KCEW on AV Mobile CRESTVIEW SIKES AIRPORT 119.275 850-682-1237
KEGIFAA ID EGI, KEGI 252155Z 35006KT 7SM -RA FEW046 SCT090 OVC130 11/08 A3002 RMK AO2A SLP168 P0000 T01060083 $ Follow KEGI on AV Mobile Duke Field / Eglin Auxiliary
KCTYFAA ID CTY, KCTY 252153Z AUTO 05004KT 18/18 A2992 Follow KCTY on AV Mobile CROSS CITY AIRPORT
KCGCFAA ID CGC, AWOS-3, KCGC 252235Z AUTO 09004KT 7SM +VCTSRA SCT004 BKN090 OVC110 20/19 A2990 RMK AO2 LTG DSNT NE THRU S P0009 Follow KCGC on AV Mobile CRYSTAL RIVER 118.325 352-563-6600
KDABFAA ID DAB, ASOS, KDAB 252249Z 33004KT 1SM RA BR FEW005 SCT015 OVC044 21/20 A2994 Follow KDAB on AV Mobile DAYTONA BEACH INTERNATIONAL 386-253-7469
54JFAA ID 54J, AWOS-3P, KTEX 252255Z AUTO 11004KT 10SM OVC032 M03/M07 A3035 RMK AO2 T10271070 Follow  on AV Mobile DEFUNIAK SPRINGS 118.725 850-892-0147
KDEDFAA ID DED, AWOS-3, KDED 252235Z AUTO 03006KT 1 1/2SM BKN002 OVC029 A2992 RMK AO1 P0011 Follow KDED on AV Mobile DELAND 119.575 386-740-5811
KDTSFAA ID DTS, ASOS, KDTS 252153Z AUTO 01008KT 10SM SCT036 BKN065 OVC120 11/08 A3003 RMK AO2 RAE36 SLP169 P0003 T01110083 TSNO Follow KDTS on AV Mobile DESTIN-FT WALTON BEACH AIRPORT 133.925 850-654-7128
KX91ICAO ID KX91 Egmont Key Coast Guard Station
KFHBFAA ID FHB, AWOS-3, KFHB 252235Z AUTO 02008KT 4SM BKN005 OVC016 20/18 A2994 RMK AO1 LTG DSNT E THRU SW Follow KFHB on AV Mobile FERNANDINA BEACH 118.075 904-277-7323
KFXEFAA ID FXE, ASOS, KFXE 252153Z 16010KT 10SM SCT030 BKN200 27/23 A2993 Follow KFXE on AV Mobile FORT LAUDERDALE EXECUTIVE 954-772-2537
KFLLFAA ID FLL, ASOS, KFLL 252153Z 16011G20KT 10SM FEW019 SCT039 BKN300 28/23 A2993 Follow KFLL on AV Mobile FORT LAUDERDALE/HOLLYWOOD 954-359-7857
KFMYFAA ID FMY, ASOS, KFMY 252153Z 19013G21KT 10SM BKN035 OVC060 27/23 A2990 RMK AO2 SLP126 T02720233 Follow KFMY on AV Mobile FORT MYERS PAGE FIELD 239-936-2318
KRSWFAA ID RSW, ASOS, KRSW 252153Z AUTO 18012KT 10SM FEW026 27/22 A2991 Follow KRSW on AV Mobile FORT MYERS SW FL INTERNATIONAL AIRPORT 239-561-0966
KX82ICAO ID KX82 Fort Pierce Coast Guard Station
KFPRFAA ID FPR, ASOS, KFPR 252153Z 13010KT 10SM CLR 27/22 A2991 Follow KFPR on AV Mobile FORT PIERCE ST LUCIE 772-489-4281
KX86ICAO ID KX86 Fowey Rocks Coast Guard Station
KX89ICAO ID KX89 Ft. Myers Beach Coast Guard Station
KGNVFAA ID GNV, ASOS, KGNV 252243Z AUTO 35005KT 4SM +RA BR OVC006 17/17 A2993 Follow KGNV on AV Mobile GAINESVILLE REGIONAL AIRPORT 352-335-8672
KHWOFAA ID HWO, ASOS, KHWO 252242Z 18008KT 10SM SCT021 27/23 A2995 RMK AO2 T02720228 Follow KHWO on AV Mobile HOLLYWOOD NORTH PERRY AIRPORT 954-983-5904
X51FAA ID X51, AWOS-3, KTEX 252255Z AUTO 11004KT 10SM OVC032 M03/M07 A3035 RMK AO2 T10271070 Follow  on AV Mobile HOMESTEAD 118.375 (305) 247-2791
KHSTFAA ID HST, KHST 252158Z AUTO 15008KT 10SM CLR 27/24 A2994 RMK AO2 CIG 028 RWY23 SLP142 T02700237 Follow KHST on AV Mobile Homestead Air Force Base
KIMMFAA ID IMM, AWOS-3, KIMM 252255Z AUTO 20008KT 6SM FEW060 BKN090 27/25 A2993 RMK A01 P000 Follow KIMM on AV Mobile IMMOKALEE 118.525 239-657-2038
KINFFAA ID INF, AWOS-3, KINF 252235Z AUTO 04003KT 7SM +TSRA BKN003 BKN021 OVC031 20/20 A2991 RMK AO2 LTG DSNT ALQS P0013 Follow KINF on AV Mobile INVERNESS 119.975 352-341-0264
KX84ICAO ID KX84 Islamorada Coast Guard Station
KHEGFAA ID HEG, AWOS-3 JACKSONVILLE 119.275 904-695-0334
KCRGFAA ID CRG, ASOS, KCRG 252237Z 05007KT 4SM +RA BR BKN004 OVC044 17/17 A2993 RMK AO2 LTG DSNT SE AND S TSB2155E17 P0022 T01720167 Follow KCRG on AV Mobile JACKSONVILLE CRAIG MUN 904-646-4670
KJAXFAA ID JAX, ASOS, KJAX 252238Z 02007KT 4SM RA BR BKN006 BKN012 OVC029 17/17 A2993 Follow KJAX on AV Mobile JACKSONVILLE INTERNATIONAL 904-741-4304
KNIPFAA ID NIP, KNIP 252213Z 02008KT 3SM +TSRA BR BKN005 BKN011CB OVC046 18/17 A2994 RMK AO2 OCNL LTGICCG OHD TS OHD MOV NE T1 SET P0009 T01830167 $ Follow KNIP on AV Mobile JACKSONVILLE NAVAL AIR STN
KVQQFAA ID VQQ, AWOS-3, KVQQ 252250Z 36009KT 2SM RA OVC0013 17/17 A2993 Follow KVQQ on AV Mobile Jacksonville, Cecil Field Airport 125.275 904-778-6934
KNENFAA ID NEN NOLF WHITEHOUSE FIELD, FL
KX80ICAO ID KX80 Jupiter Inlet Coast Guard Station
KEYWFAA ID EYW, ASOS, KEYW 252153Z 13007KT 10SM CLR 27/24 A2991 Follow KEYW on AV Mobile KEY WEST INTERNATIONAL AIRPORT 119.65 305-292-4046
KNQXFAA ID NQX, KNQX 252153Z 13007KT 10SM FEW045 SCT180 26/24 A2991 RMK AO2 SLP127 T02610239 $ Follow KNQX on AV Mobile KEY WEST NAVAL AIR STATION
K42JFAA ID 42J, AWOS-3, K42J 252235Z AUTO 06003KT 3SM OVC001 17/17 A2992 RMK AO1 P0011 TSNO Follow K42J on AV Mobile KEYSTONE HEIGHTS 124.275 352-473-8273
KLCQFAA ID LCQ, AWOS-3, KLCQ 252235Z AUTO 05005KT 7SM RA BKN006 BKN019 OVC026 17/17 A2994 RMK AO2 LTG DSNT SE P0010 Follow KLCQ on AV Mobile LAKE CITY 120.675 386-754-9366
X07FAA ID X07, AWOS-3, KTEX 252255Z AUTO 11004KT 10SM OVC032 M03/M07 A3035 RMK AO2 T10271070 Follow  on AV Mobile LAKE WALES 124.225 863-678-1334
KX81ICAO ID KX81 Lake Worth Inlet
KLALFAA ID LAL, AWOS-3PT, KLAL 252153Z 25004KT 7SM BKN009 OVC080 26/23 A2990 Follow KLAL on AV Mobile Lakeland Regional 118.025 863-834-2030
KLEEFAA ID LEE, ASOS, KLEE 252249Z 11007KT 2 1/2SM VCTS RA BR BKN041 OVC060 20/19 A2992 RMK AO2 LTG DSNT ALQDS TSB04E39 P0035 Follow KLEE on AV Mobile LEESBURG REGIONAL AIRPORT 134.325 352-787-1565
24JFAA ID 24J, AWOS-3, KTEX 252255Z AUTO 11004KT 10SM OVC032 M03/M07 A3035 RMK AO2 T10271070 Follow  on AV Mobile LIVE OAK 118.225 386-362-1731
KX88ICAO ID KX88 Marathon Coast Guard Station
KMTHFAA ID MTH, ASOS, KMTH 252153Z AUTO 15006KT 9SM CLR 27/25 A2992 RMK AO2 SLP130 T02720250 Follow KMTH on AV Mobile MARATHON AIRPORT 135.525 305-743-8373
KMKYFAA ID MKY, AWOS-3, KMKY 252235Z AUTO 16008KT 10SM BKN060 26/24 A2992 RMK AO1 Follow KMKY on AV Mobile MARCO ISLAND 120.075 239-394-8187
KMAIFAA ID MAI, ASOS, KMAI 252153Z AUTO 35006KT 10SM SCT085 OVC110 10/09 A3004 RMK AO2 RAE27 SLP171 P0001 T01000094 Follow KMAI on AV Mobile MARIANNA MUNICIPAL AIRPORT 133.525 850-482-6082
KHRTFAA ID HRT, KHRT 252158Z AUTO 34003KT 10SM -RA BKN046 BKN070 BKN100 OVC130 11/07 A3004 RMK AO2 RAE2137B2155 SLP174 P0001 T01070070 $ Follow KHRT on AV Mobile Hurlburt Field
KNRBFAA ID NRB, KNRB 252252Z 01009G19KT 3SM +RA BR SCT006 OVC020CB 17/17 A2993 RMK AO2 TSE36 SLP133 OCNL LTGICCGCA E CB E MOV NE T1 SET P0026 T01720172 $ Follow KNRB on AV Mobile MAYPORT NAVAL AIR FACILITY
KMLBFAA ID MLB, ASOS, KMLB 252153Z 15011KT 10SM SCT060 OVC090 27/23 A2988 Follow KMLB on AV Mobile MELBOURNE INTERNATIONAL 321-723-7403
KCOIFAA ID COI, AWOS-3 Merritt Island, Merritt Island Airport 119.025 321-986-8864
KTNTFAA ID TNT, AWOS-3 MIAMI 119.075 (239) 695-9198
KX87ICAO ID KX87 Miami Beach Coast Guard Station
KAMXICAO ID KAMX Miami Nexrad
KTMBFAA ID TMB, ASOS, KTMB 252223Z 16007KT 10SM FEW021 SCT029 27/23 A2994 Follow KTMB on AV Mobile KENDALL-TAMIAMI EXEC AIRPORT 305-235-1332
KMIAFAA ID MIA, ASOS, KMIA 252228Z 16010G18KT 10SM SCT020 BKN250 27/24 A2994 Follow KMIA on AV Mobile MIAMI INTERNATIONAL AIRPORT 305-870-0235
KOPFFAA ID OPF, KOPF 252203Z 17011KT 10SM SCT021 BKN026 BKN032 27/23 A2994 Follow KOPF on AV Mobile MIAMI OPA LOCKA AIRPORT
KNFJFAA ID NFJ CHOCTAW, WHITING FIELD, NOLF
KNSEFAA ID NSE, KNSE 252156Z 00000KT 10SM BKN110 OVC200 12/06 A3004 RMK AO2 SLP161 T01170061 $ Follow KNSE on AV Mobile MILTON WHITING FIELD (NORTH)
KNDZFAA ID NDZ, KNDZ 252156Z 00000KT 10SM BKN110 OVC200 13/07 A3004 RMK AO2 SLP161 T01330067 Follow KNDZ on AV Mobile MILTON WHITING FIELD (SOUTH)
KAPFFAA ID APF, ASOS, KAPF 252153Z 17013KT 10SM SCT019 BKN029 BKN085 27/23 A2991 Follow KAPF on AV Mobile NAPLES MUNICIPAL AIRPORT 239-643-9886
KRRFICAO ID KRRF New Port Richey, Tampa Bay Executive Airport
KEVBFAA ID EVB, AWOS-3, KEVB 252250Z 34008G14KT 2SM RA BR OVC013 21/21 A2989 Follow KEVB on AV Mobile New Smyrna Beach, New Smyrna Beach Municipal Airport 124.625 386-409-4705
KOCFFAA ID OCF, AWOS-3, KOCF 252250Z 00000KT 2SM -RA BR OVC004 18/17 A2993 Follow KOCF on AV Mobile Ocala, Ocala International Airport-Jim Taylor Field 128.125 352-237-8525
KOBEFAA ID OBE, AWOS-3, KOBE 252235Z AUTO 18009KT 7SM -TSRA SCT049 SCT060 OVC070 A2992 RMK AO2 P0003 LTG DSNT W THRU NE Follow KOBE on AV Mobile Okeechobee County Airport 118.675 863-467-1148
KORLFAA ID ORL, ASOS, KORL 252153Z 00000KT 10SM BKN006 BKN013 OVC026 A2990 Follow KORL on AV Mobile ORLANDO EXECUTIVE AIRPORT 407-658-6753
KMCOFAA ID MCO, ASOS, KMCO 252246Z 33013KT 10SM -RA SCT005 BKN010 OVC026 22/22 A2991 Follow KMCO on AV Mobile ORLANDO INTERNATIONAL AIRPORT 407-855-5235
KSFBFAA ID SFB, ASOS, KSFB 252239Z 36006KT 10SM -RA FEW018 OVC039 20/19 A2993 Follow KSFB on AV Mobile ORLANDO SANFORD AIRPORT 407-321-9384
KISMFAA ID ISM, AWOS-3, KISM 252150Z 00000KT 10SM FEW009 SCT034 OVC085 24/24 A2990 Follow KISM on AV Mobile Orlando, Kissimmee Municipal Airport 128.775 407-847-0533
KOMNFAA ID OMN, AWOS-3, KOMN 252250Z 00000KT 2SM RABR BKN009 OVC033 20/20 A2994 Follow KOMN on AV Mobile Ormond Beach, Ormond Beach Municipal Airport 118.475 386-615-7084
28JFAA ID 28J, AWOS-3, KTEX 252255Z AUTO 11004KT 10SM OVC032 M03/M07 A3035 RMK AO2 T10271070 Follow  on AV Mobile PALATKA 119.92 386-312-2212
KXFLFAA ID XFL, AWOS-3, KXFL 132150Z VRB03KT 7SM CLR 21/18 A2999 Follow KXFL on AV Mobile PALM COAST 128.325 386-437-7334
KECPFAA ID ECP, ASOS, KECP 252153Z 36007KT 9SM -RA FEW008 SCT090 OVC110 11/09 A3000 Follow KECP on AV Mobile PANAMA CITY 119.975 850-235-7857
KPFNICAO ID KPFN, KPFN 030253Z VRB03KT 10SM FEW023 25/23 A2989 Follow KPFN on AV Mobile PANAMA CITY-BAY CTY INTERNATIONAL
KPAMFAA ID PAM, KPAM 252158Z 05008KT 9SM -DZ BKN007 OVC045 11/10 A3000 RMK RAB2107DZB2105E2107 CIG 015V030 CIG 006 RWY14 SLP162 P0001 T01060101 $ Follow KPAM on AV Mobile Tyndall Air Force Base
KPNSFAA ID PNS, ASOS, KPNS 252153Z 00000KT 10SM -RA FEW090 OVC110 13/05 A3004 Follow KPNS on AV Mobile PENSACOLA REGIONAL AIRPORT 850-436-4799
KNPAFAA ID NPA, KNPA 252156Z 00000KT 10SM FEW060 SCT095 OVC110 12/06 A3005 RMK AO2 RAB39E49 SLP178 P0000 T01220061 $ Follow KNPA on AV Mobile Pensacola, Naval Air Station
K40JFAA ID 40J, AWOS-3PT, K40J 252235Z AUTO 36005KT 10SM BKN007 OVC023 14/14 A2997 RMK AO2 LTG DSNT SE T01420135 Follow K40J on AV Mobile PERRY-FOLEY AIRPORT 118.375 850-838-3526
FA54FAA ID FA54, Belfort CORAL CREEK
KPCMFAA ID PCM, AWOS-3, KPCM 252235Z AUTO 23003KT 10SM OVC016 26/ A2991 RMK AO2 Follow KPCM on AV Mobile Plant City, Plant City Municipal Airport 120.025 813-764-8259
KPMPFAA ID PMP, ASOS, KPMP 252153Z 17010G18KT 8SM FEW040 27/23 A2993 RMK AO2 SLP137 T02720233 Follow KPMP on AV Mobile POMPANO BEACH AIRPARK 954-783-3720
K1J3ICAO ID K1J3 Ponce De Leon Inlet
KPGDFAA ID PGD, ASOS, KPGD 252153Z AUTO 19016G22KT 10SM OVC070 27/24 A2992 RMK AO2 PK WND 20026/2103 SLP130 T02720239 Follow KPGD on AV Mobile PUNTA GORDA CHARLOTTE COUNTY 135.675 941-639-0076
K1J5ICAO ID K1J5 Santa Rosa Coast Guard Station
KSRQFAA ID SRQ, ASOS, KSRQ 252227Z 18013KT 2 1/2SM RA BR BKN004 OVC021 23/23 A2987 Follow KSRQ on AV Mobile SARASOTA/BRADENTON INTERNATIONAL . 124.375 941-359-0117
KSEFFAA ID SEF, AWOS-3 SEBRING 119.475 863-655-6424
KSGJFAA ID SGJ, AWOS-3, KSGJ 252246Z 02008KT 1 1/2SM -RA BR BKN004 20/19 A2993 RMK AO2 LTG DSNT SE AND S TSB02E17B28E43 P0012 Follow KSGJ on AV Mobile St. Augustine, St. Augustine Airport 904-824-7084
KPIEFAA ID PIE, ASOS, KPIE 252231Z AUTO 36004KT 2SM R18L/3000VP6000FT +RA BR SCT007 OVC015 22/21 A2989 Follow KPIE on AV Mobile ST PETERSBURG/CLEARWATER 727-531-3456
KSPGFAA ID SPG, ASOS, KSPG 252248Z 22018G23KT 4SM -RA BR BKN008 BKN014 OVC026 24/22 A2986 RMK AO2 LTG DSNT W-NE RAB2158 P0024 Follow KSPG on AV Mobile ST PETERSBURG WHITTED AIRPORT 118.875 727-821-4334
KSUAFAA ID SUA, AWOS-3, KSUA 252247Z 15012KT 7SM SCT030 BKN100 26/22 A2994 Follow KSUA on AV Mobile Stuart, Witham Field Airport 772-692-7399
KTLHFAA ID TLH, ASOS, KTLH 252231Z 35007KT 2 1/2SM -RA BKN006 OVC011 12/11 A3001 Follow KTLH on AV Mobile TALLAHASSEE REGIONAL AIRPORT 850-576-3665
KTBWICAO ID KTBW Tampa Bay Area
KMCFFAA ID MCF, KMCF 252237Z AUTO 19010KT 4SM +RA BR FEW012 BKN023 OVC040 23/23 A2988 RMK AO2 RAB2207DZB2210E2211 CIG 023V040 Follow KMCF on AV Mobile Macdill Air Force Base, Fl.
KTPAFAA ID TPA, ASOS, KTPA 252234Z COR 03006KT 1 1/2SM R01L/4000VP6000FT +RA BR SCT005 OVC009 22/21 A2990 Follow KTPA on AV Mobile TAMPA INTERNATIONAL AIRPORT 813-873-7228
KTPFFAA ID TPF, AWOS-3, KTPF 252235Z AUTO 00000KT 5SM -RA SCT018 BKN041 OVC048 25/23 A2989 RMK AO2 P0001 Follow KTPF on AV Mobile Tampa, Peter O Knight Airport 118.925 813-251-6824
KVDFFAA ID VDF, AWOS-3, KVDF 252235Z AUTO 00000KT 10SM BKN006 OVC016 23/22 A2988 RMK AO2 Follow KVDF on AV Mobile Tampa, Vandenberg Airport 121.125 813-630-0924
KVLGICAO ID KVLG The Villages
KVVGICAO ID KVVG, KVVG 252235Z AUTO 11007KT 2SM BR 20/20 A2983 RMK A01 Follow KVVG on AV Mobile The Villages
KX68ICAO ID KX68 Titusville, NASA Shuttle Landing Facility
KTIXFAA ID TIX, KTIX 252248Z 21010KT 2SM RA BKN008 OVC017 23/22 A2992 RMK SHRA OVHD Follow KTIX on AV Mobile Titusville
KX21FAA ID X21, AWOS-3 Titusville, Arthur Dunn Air Park 119.725 321-385-0383
KTTSFAA ID TTS, KTTS 252250Z AUTO 22008KT 2 1/2SM +RA BR OVC026 23/22 A2990 RMK AO2 VIS 2 1/2V4 LTG DSNT SE TSE2245 CIG 021V026 VISNO RWY33 CHINO RWY33 $ Follow KTTS on AV Mobile Titusville, NASA Shuttle Landing Facility
KVPSFAA ID VPS, KVPS 252248Z 03003KT 10SM BKN048 OVC090 11/09 A3006 RMK AO2A $ Follow KVPS on AV Mobile Valparaiso / Eglin Air Force Base
KVNCFAA ID VNC, AWOS-3, KVNC 252235Z AUTO 17017G23KT 4SM BR FEW004 OVC065 24/23 A2989 RMK AO2 TSNO Follow KVNC on AV Mobile VENICE 119.275
KX90ICAO ID KX90 Venice Long Range Navigation
KVRBFAA ID VRB, ASOS, KVRB 252153Z AUTO 14012KT 10SM CLR 26/22 A2991 Follow KVRB on AV Mobile VERO BEACH MUNICIPAL AIRPORT 772-978-9535
F45FAA ID F45, AWOS-3, KTEX 252255Z AUTO 11004KT 10SM OVC032 M03/M07 A3035 RMK AO2 T10271070 Follow  on AV Mobile WEST PALM BEACH 119.975 561-630-6932
KLNAFAA ID LNA, AWOS-3 WEST PALM BEACH 119.925 561-964-0308
KPBIFAA ID PBI, ASOS, KPBI 252153Z 17014G21KT 10SM SCT024 BKN039 BKN250 28/23 A2992 Follow KPBI on AV Mobile PALM BEACH INTERNATIONAL 123.75 561-683-2548
FD38FAA ID FD38, Belfort WELLINGTON AERO CLUB
X60FAA ID X60, AWOS-3, KTEX 252255Z AUTO 11004KT 10SM OVC032 M03/M07 A3035 RMK AO2 T10271070 Follow  on AV Mobile WILLISTON 118.425 352-528-9949
KGIFFAA ID GIF, ASOS, KGIF 252153Z AUTO 25004KT 10SM BKN065 OVC080 26/23 A2991 RMK AO2 SLP125 T02610228 Follow KGIF on AV Mobile WINTER HAVENS GILBERT AIRPORT 133.675 863-956-2097
KZPHFAA ID ZPH, ASOS, KZPH 252235Z AUTO 03010G14KT 7SM -RA BKN007 BKN017 OVC023 18/18 A2992 RMK AO2 P0008 LTG DSNT ALQS Follow KZPH on AV Mobile ZEPHYRHILLS 118.975 813-780-0031

Click on the AV Mobile icon AV Mobile icon by any station to follow that AWOS feed on AirportView.net Mobile.

Garmin aera 796 $1999 at Avionics Specialists LLC
Bose A20 Aviation Headsets $995 at Avionics Specialists LLC